Terminal Aerodrome Forecast
Issued by NWS Wilmington, OH

Current Version | Previous Version | Text Only | Print | Product List | Glossary Off
Versions: 1 2 3 4 5 6 7 8 9 10 11 12 13 14 15 16 17

000
FTUS41 KILN 252000 AAA
TAFDAY
TAF AMD
KDAY 252056Z 2521/2618 24013G20KT P6SM OVC020
     FM260200 18006KT P6SM SCT200
     FM261500 20010G22KT P6SM SCT200=

USA.gov is the U.S. government's official web portal to all federal, state and local government web resources and services.